Latest Weather Observations for St Lawrence

IDQ60801

Issued at 9:02 am EST Saturday 30 July 2016 (issued every 30 minutes, with the page automatically refreshed every 10 minutes)

About weather observations | Map of weather stations | Latest weather observations for QLD | Other Formats
Station Details ID: 033210 Name: ST LAWRENCE Lat: -22.35 Lon: 149.52 Height: 9.19 m
Data from the previous 72 hours. | See also: Recent months at St Lawrence
Date/Time
EST
Temp
°C
App
Temp
°C
Dew
Point
°C
Rel
Hum
%
Delta-T
°C
Wind Press
QNH
hPa
Press
MSL
hPa
Rain since
9am
mm
Dir  Spd
km/h
Gust
km/h
Spd
kts
Gust
kts
30/09:00am 17.9 15.5 12.6 71 2.9 S 17 24 9 13 1020.6 1020.6 0.0
30/08:30am 16.7 16.3 13.0 79 2.1 S 7 13 4 7 1020.4 1020.4 0.0
30/08:00am 13.9 14.2 12.1 89 1.0 WSW 2 6 1 3 1020.2 1020.2 0.0
30/07:30am 12.1 11.0 10.7 91 0.7 SW 7 9 4 5 1020.2 1020.2 0.0
30/07:00am 11.4 10.4 10.3 93 0.6 WSW 6 7 3 4 1019.9 1019.9 0.0
30/06:30am 11.1 10.1 10.2 94 0.5 SW 6 7 3 4 1019.7 1019.7 0.0
30/06:00am 10.5 10.4 9.3 92 0.6 CALM 0 4 0 2 1019.4 1019.4 0.0
30/05:30am 10.9 10.1 9.7 92 0.6 SW 4 6 2 3 1019.2 1019.2 0.0
30/05:00am 10.9 9.7 9.7 92 0.6 SW 6 7 3 4 1018.9 1018.9 0.0
30/04:30am 11.1 9.8 10.0 93 0.6 SSW 7 9 4 5 1018.7 1018.7 0.0
30/04:00am 11.3 11.0 10.0 92 0.7 SSW 2 6 1 3 1018.9 1018.9 0.0
30/03:30am 11.7 10.7 10.4 92 0.7 SW 6 7 3 4 1018.9 1018.9 0.0
30/03:00am 11.5 11.2 10.1 91 0.7 SW 2 6 1 3 1019.1 1019.1 0.0
30/02:30am 12.2 12.0 10.6 90 0.8 S 2 6 1 3 1019.1 1019.1 0.0
30/02:00am 12.5 11.7 10.9 90 0.8 S 6 7 3 4 1019.3 1019.3 0.0
30/01:30am 12.3 12.6 10.9 91 0.7 CALM 0 0 0 0 1019.5 1019.5 0.0
30/01:00am 12.1 12.2 10.3 89 0.9 CALM 0 6 0 3 1019.9 1019.9 0.0
30/12:30am 12.8 12.8 11.0 89 0.9 SW 2 6 1 3 1020.1 1020.1 0.0
30/12:00am 13.4 12.7 11.5 88 1.0 SW 6 7 3 4 1020.3 1020.3 0.0
 
Date/Time
EST
Temp
°C
App
Temp
°C
Dew
Point
°C
Rel
Hum
%
Delta-T
°C
Wind Press
QNH
hPa
Press
MSL
hPa
Rain since
9am
mm
Dir  Spd
km/h
Gust
km/h
Spd
kts
Gust
kts
29/11:30pm 13.6 13.1 12.0 90 0.9 WSW 6 7 3 4 1020.6 1020.6 0.0
29/11:00pm 13.4 13.1 11.6 89 1.0 WSW 4 6 2 3 1020.6 1020.6 0.0
29/10:30pm 13.8 13.9 11.5 86 1.2 SSW 2 6 1 3 1020.6 1020.6 0.0
29/10:00pm 14.7 14.3 12.4 86 1.2 SW 6 9 3 5 1020.7 1020.7 0.0
29/09:30pm 14.7 15.4 12.2 85 1.4 CALM 0 0 0 0 1020.6 1020.6 0.0
29/09:00pm 15.2 16.0 12.5 84 1.5 CALM 0 0 0 0 1020.5 1020.5 0.0
29/08:30pm 16.4 16.9 12.9 80 1.9 SW 2 7 1 4 1020.3 1020.3 0.0
29/08:00pm 16.7 17.6 13.0 79 2.1 CALM 0 0 0 0 1020.1 1020.1 0.0
29/07:30pm 17.8 18.0 13.1 74 2.6 ENE 4 6 2 3 1019.7 1019.7 0.0
29/07:00pm 16.5 17.2 12.3 76 2.3 CALM 0 0 0 0 1019.3 1019.3 0.0
29/06:30pm 17.7 18.5 12.4 71 2.9 CALM 0 0 0 0 1018.9 1018.9 0.0
29/06:00pm 18.1 18.8 12.1 68 3.3 CALM 0 0 0 0 1018.6 1018.6 0.0
29/05:30pm 20.5 21.3 12.5 60 4.5 CALM 0 0 0 0 1018.5 1018.5 0.0
29/05:00pm 22.3 22.7 11.4 50 6.1 CALM 0 4 0 2 1018.3 1018.3 0.0
29/04:30pm 23.4 23.8 11.1 46 6.9 CALM 0 4 0 2 1018.3 1018.3 0.0
29/04:00pm 23.4 22.7 11.5 47 6.7 NE 6 13 3 7 1018.3 1018.3 0.0
29/03:30pm 23.1 22.1 10.9 46 6.8 NE 7 15 4 8 1018.2 1018.2 0.0
29/03:00pm 22.9 21.4 10.7 46 6.7 E 9 17 5 9 1018.3 1018.3 0.0
29/02:30pm 22.7 21.8 10.5 46 6.7 E 6 9 3 5 1018.4 1018.4 0.0
29/02:00pm 23.3 22.7 11.7 48 6.5 E 6 15 3 8 1018.7 1018.7 0.0
29/01:30pm 23.2 21.9 11.3 47 6.7 ESE 9 17 5 9 1019.0 1019.0 0.0
29/01:00pm 23.5 22.0 11.9 48 6.5 ENE 11 19 6 10 1019.4 1019.4 0.0
29/12:30pm 22.6 20.4 10.7 47 6.6 SSE 13 19 7 10 1019.8 1019.8 0.0
29/12:00pm 22.1 20.0 9.9 46 6.6 SE 11 19 6 10 1020.6 1020.6 0.0
29/11:30am 21.5 19.3 9.4 46 6.5 SSE 11 15 6 8 1021.2 1021.2 0.0
29/11:00am 20.7 18.0 9.0 47 6.2 SE 13 20 7 11 1021.9 1021.9 0.0
29/10:30am 20.1 16.8 8.1 46 6.2 S 15 20 8 11 1022.1 1022.1 0.0
29/10:00am 19.3 16.0 8.0 48 5.8 SSE 15 20 8 11 1022.3 1022.3 0.0
29/09:30am 17.7 14.8 8.0 53 4.9 S 13 17 7 9 1022.5 1022.5 0.0
29/09:00am 17.0 14.1 8.2 56 4.5 S 13 20 7 11 1022.7 1022.7 0.0
29/08:30am 15.5 12.5 7.5 59 4.0 S 13 20 7 11 1022.5 1022.5 0.0
29/08:00am 14.6 12.1 8.3 66 3.1 SSE 11 17 6 9 1022.4 1022.4 0.0
29/07:30am 13.6 11.5 8.4 71 2.6 SSE 9 17 5 9 1022.2 1022.2 0.0
29/07:00am 8.8 7.3 6.9 88 0.9 SW 4 6 2 3 1022.0 1022.0 0.0
29/06:30am 8.8 7.3 6.8 87 0.9 SW 4 6 2 3 1021.6 1021.6 0.0
29/06:00am 8.7 6.8 6.8 88 0.9 SW 6 7 3 4 1021.3 1021.3 0.0
29/05:30am 8.6 6.7 6.9 89 0.8 SSW 6 7 3 4 1021.0 1021.0 0.0
29/05:00am 8.0 5.9 6.5 90 0.7 SW 7 7 4 4 1020.8 1020.8 0.0
29/04:30am 7.7 5.4 5.7 87 0.9 SSW 7 7 4 4 1020.7 1020.7 0.0
29/04:00am 8.3 6.2 5.9 85 1.1 SW 6 7 3 4 1020.8 1020.8 0.0
29/03:30am 9.3 7.0 5.9 79 1.6 SSW 7 9 4 5 1020.9 1020.9 0.0
29/03:00am 8.5 6.4 5.8 83 1.2 SSW 6 7 3 4 1020.8 1020.8 0.0
29/02:30am 9.8 7.8 6.2 78 1.7 SW 6 7 3 4 1020.9 1020.9 0.0
29/02:00am 9.4 7.4 6.1 80 1.5 SW 6 7 3 4 1021.1 1021.1 0.0
29/01:30am 10.2 8.0 6.4 77 1.8 SW 7 9 4 5 1021.4 1021.4 0.0
29/01:00am 10.3 8.3 7.0 80 1.6 SW 7 9 4 5 1021.8 1021.8 0.0
29/12:30am 9.6 7.8 7.0 84 1.2 SW 6 7 3 4 1022.1 1022.1 0.0
29/12:00am 9.4 8.7 7.0 85 1.1 CALM 0 0 0 0 1022.3 1022.3 0.0
 
Date/Time
EST
Temp
°C
App
Temp
°C
Dew
Point
°C
Rel
Hum
%
Delta-T
°C
Wind Press
QNH
hPa
Press
MSL
hPa
Rain since
9am
mm
Dir  Spd
km/h
Gust
km/h
Spd
kts
Gust
kts
28/11:30pm 9.9 8.1 7.3 84 1.2 WSW 6 7 3 4 1022.4 1022.4 0.0
28/11:00pm 10.1 9.1 7.3 83 1.3 S 2 7 1 4 1022.4 1022.4 0.0
28/10:30pm 11.0 9.2 7.1 77 1.9 S 6 7 3 4 1022.4 1022.4 0.0
28/10:00pm 11.5 10.9 7.6 77 1.9 CALM 0 7 0 4 1022.6 1022.6 0.0
28/09:30pm 11.2 10.6 7.3 77 1.9 CALM 0 0 0 0 1022.5 1022.5 0.0
28/09:00pm 12.4 11.8 7.3 71 2.5 CALM 0 0 0 0 1022.4 1022.4 0.0
28/08:30pm 12.9 12.3 7.6 70 2.6 CALM 0 0 0 0 1022.3 1022.3 0.0
28/08:00pm 13.3 12.8 8.0 70 2.6 CALM 0 0 0 0 1022.2 1022.2 0.0
28/07:30pm 14.0 13.6 8.2 68 2.9 CALM 0 0 0 0 1021.9 1021.9 0.0
28/07:00pm 15.5 14.6 7.8 60 3.8 S 2 6 1 3 1021.7 1021.7 0.0
28/06:30pm 16.0 14.6 7.2 56 4.4 S 4 6 2 3 1021.4 1021.4 0.0
28/06:00pm 17.3 15.5 7.1 51 5.1 S 6 7 3 4 1021.1 1021.1 0.0
28/05:30pm 19.9 17.3 5.9 40 6.9 S 9 13 5 7 1020.7 1020.7 0.0
28/05:00pm 21.1 18.4 5.5 36 7.7 S 9 15 5 8 1020.5 1020.5 0.0
28/04:30pm 21.5 18.6 4.6 33 8.3 SSE 9 15 5 8 1020.2 1020.2 0.0
28/04:00pm 21.7 18.4 4.7 33 8.3 S 11 17 6 9 1020.0 1020.0 0.0
28/03:30pm 21.6 17.5 4.2 32 8.4 S 15 22 8 12 1020.0 1020.0 0.0
28/03:00pm 21.9 18.3 4.9 33 8.4 S 13 20 7 11 1020.1 1020.1 0.0
28/02:30pm 21.8 17.6 5.7 35 8.1 S 17 24 9 13 1020.2 1020.2 0.0
28/02:00pm 21.8 18.3 5.3 34 8.2 S 13 20 7 11 1020.7 1020.7 0.0
28/01:30pm 21.4 17.1 5.3 35 8.0 SSE 17 24 9 13 1021.0 1021.0 0.0
28/01:00pm 21.0 16.7 5.4 36 7.7 S 17 26 9 14 1021.5 1021.5 0.0
28/12:30pm 20.7 16.2 4.3 34 7.9 S 17 28 9 15 1022.1 1022.1 0.0
28/12:00pm 20.7 16.4 5.1 36 7.6 SSE 17 26 9 14 1022.5 1022.5 0.0
28/11:30am 19.7 15.2 4.2 36 7.4 S 17 30 9 16 1023.0 1023.0 0.0
28/11:00am 20.0 15.6 4.5 36 7.4 SSE 17 30 9 16 1023.4 1023.4 0.0
28/10:30am 19.6 14.4 3.7 35 7.5 SSE 20 37 11 20 1023.6 1023.6 0.0
28/10:00am 19.0 15.3 6.5 44 6.2 S 15 24 8 13 1023.9 1023.9 0.0
28/09:30am 17.6 14.1 7.4 51 5.1 S 15 22 8 12 1024.0 1024.0 0.0
28/09:00am 16.5 13.0 7.2 54 4.6 S 15 22 8 12 1024.0 1024.0 0.0
28/08:30am 15.3 13.7 7.8 61 3.7 S 6 13 3 7 1023.9 1023.9 0.0
28/08:00am 13.3 11.7 8.6 73 2.3 SSW 7 11 4 6 1023.7 1023.7 0.0
28/07:30am 10.7 9.3 8.8 88 0.9 SW 6 7 3 4 1023.4 1023.4 0.0
28/07:00am 9.0 7.2 7.0 87 0.9 SSW 6 7 3 4 1023.1 1023.1 0.0
28/06:30am 9.0 7.0 7.1 88 0.9 SW 7 9 4 5 1022.6 1022.6 0.0
28/06:00am 9.7 8.1 8.0 89 0.8 WSW 6 6 3 3 1022.3 1022.3 0.0
28/05:30am 9.6 8.4 7.9 89 0.8 WSW 4 6 2 3 1022.0 1022.0 0.0
28/05:00am 10.1 8.4 8.5 90 0.8 WSW 7 9 4 5 1021.7 1021.7 0.0
28/04:30am 10.7 9.9 9.6 93 0.6 WSW 4 7 2 4 1021.5 1021.5 0.0
28/04:00am 10.5 10.2 8.8 89 0.8 CALM 0 0 0 0 1021.4 1021.4 0.0
28/03:30am 11.1 10.5 9.0 87 1.0 WSW 2 6 1 3 1021.5 1021.5 0.0
28/03:00am 11.5 10.4 9.8 89 0.9 SW 6 7 3 4 1021.4 1021.4 0.0
28/02:30am 11.9 11.9 9.8 87 1.1 CALM 0 0 0 0 1021.5 1021.5 0.0
28/02:00am 12.0 11.9 9.4 84 1.3 CALM 0 0 0 0 1021.5 1021.5 0.0
28/01:30am 12.6 12.7 10.0 84 1.3 CALM 0 0 0 0 1021.6 1021.6 0.0
28/01:00am 13.4 13.4 9.8 79 1.8 CALM 0 0 0 0 1021.8 1021.8 0.0
28/12:30am 14.3 13.5 9.7 74 2.4 S 4 6 2 3 1021.9 1021.9 0.0
28/12:00am 14.6 13.5 9.8 73 2.5 S 6 9 3 5 1021.8 1021.8 0.0
 
Date/Time
EST
Temp
°C
App
Temp
°C
Dew
Point
°C
Rel
Hum
%
Delta-T
°C
Wind Press
QNH
hPa
Press
MSL
hPa
Rain since
9am
mm
Dir  Spd
km/h
Gust
km/h
Spd
kts
Gust
kts
27/11:30pm 14.8 15.0 10.4 75 2.3 CALM 0 6 0 3 1021.8 1021.8 0.0
27/11:00pm 15.8 15.9 10.1 69 3.0 CALM 0 0 0 0 1021.6 1021.6 0.0
27/10:30pm 16.5 16.1 9.7 64 3.6 SSE 2 7 1 4 1021.6 1021.6 0.0
27/10:00pm 17.1 15.8 10.0 63 3.7 SE 7 9 4 5 1021.5 1021.5 0.0
27/09:30pm 18.2 16.6 10.3 60 4.2 SSE 9 17 5 9 1021.2 1021.2 0.0
27/09:00pm 17.8 16.9 11.4 66 3.5 SE 7 9 4 5 1021.0 1021.0 0.0
27/08:30pm 17.5 16.7 10.9 65 3.6 SSW 6 7 3 4 1020.7 1020.7 0.0
27/08:00pm 17.2 16.8 11.2 68 3.2 S 4 6 2 3 1020.3 1020.3 0.0
27/07:30pm 18.7 18.3 11.0 61 4.2 SSW 4 6 2 3 1019.8 1019.8 0.0
27/07:00pm 20.1 19.6 10.8 55 5.1 SSW 4 7 2 4 1019.4 1019.4 0.0
27/06:30pm 20.8 19.6 10.3 51 5.7 S 7 13 4 7 1019.1 1019.1 0.0
27/06:00pm 21.8 21.4 9.7 46 6.5 S 2 7 1 4 1018.6 1018.6 0.0
27/05:30pm 23.0 21.0 8.7 40 7.6 SSW 9 13 5 7 1018.3 1018.3 0.0
27/05:00pm 24.3 21.8 8.3 36 8.5 SSW 11 22 6 12 1018.1 1018.1 0.0
27/04:30pm 25.1 22.4 9.0 36 8.7 SSW 13 24 7 13 1017.8 1017.8 0.0
27/04:00pm 25.6 23.0 9.4 36 8.9 S 13 19 7 10 1017.4 1017.4 0.0
27/03:30pm 25.6 22.7 9.8 37 8.7 S 15 24 8 13 1017.0 1017.0 0.0
27/03:00pm 25.7 22.2 8.7 34 9.2 SSE 17 24 9 13 1016.9 1016.9 0.0
27/02:30pm 25.6 21.9 8.1 33 9.4 SSE 17 24 9 13 1017.0 1017.0 0.0
27/02:00pm 25.6 21.8 9.0 35 9.0 S 19 26 10 14 1017.1 1017.1 0.0
27/01:30pm 25.8 22.9 9.6 36 8.9 SSE 15 22 8 12 1017.3 1017.3 0.0
27/01:00pm 25.5 22.7 10.1 38 8.5 SSE 15 26 8 14 1017.5 1017.5 0.0
27/12:30pm 25.1 22.6 9.8 38 8.4 SSE 13 20 7 11 1018.1 1018.1 0.0
27/12:00pm 24.5 23.1 12.1 46 7.1 S 11 17 6 9 1018.4 1018.4 0.0
27/11:30am 23.9 23.0 12.5 49 6.5 S 9 17 5 9 1018.8 1018.8 0.0
27/11:00am 22.8 21.2 12.7 53 5.8 S 13 17 7 9 1019.3 1019.3 0.0
27/10:30am 21.9 20.9 12.2 54 5.5 S 9 17 5 9 1019.6 1019.6 0.0
27/10:00am 21.2 22.0 12.6 58 4.9 CALM 0 0 0 0 1019.8 1019.8 0.0
27/09:30am 20.5 21.0 12.7 61 4.4 SE 2 7 1 4 1020.0 1020.0 0.0

Other Formats:

Comma delimited format used in spreadsheet applications
http://www.bom.gov.au/fwo/IDQ60801/IDQ60801.95369.axf

JavaScript Object Notation format (JSON) in row-major order
http://www.bom.gov.au/fwo/IDQ60801/IDQ60801.95369.json